Relevés horaires Matro (Suisse)


Relevés horaires à Matro - Mardi 16 Mars 2021
Heure UTC1 Température [°C] Vent [km/h] Hum. [%] Pres.4 [hPa] Visi. [Km] Nébu. [octa] Préc.5 [mm] Cond.
2m. Res. Ros. Dir.2 Vit. Moy. Raf.3
23:00 -8.0 -16 -13.5 NO 24.1 -- 44.4 64 850(-0.2/3h) -- -- -- --
22:00 -7.9 -16.5 -13.5 NNO 27.8 -- 50.0 64 850(-0.3/3h) -- -- -- --
21:00 -8.3 -18.4 -14.0 NNO 38.9 -- 72.2 63 850(-0.5/3h) -- -- -- --
20:00 -8.4 -19.3 -14.5 NNO 46.3 -- 68.5 61 850(-0.5/3h) -- -- -- --
19:00 -8.6 -19.5 -14.8 NNO 46.3 -- 72.2 61 850(-0.2/3h) -- -- -- --
18:00 -8.7 -18.7 -14.7 NNO 37.0 -- 59.3 62 850(-0.4/3h) -- -- -- --
17:00 -8.7 -18.5 -14.4 NNO 35.2 -- 57.4 63 850(-0.7/3h) -- -- -- --
16:00 -8.6 -17.9 -14.8 NNO 31.5 -- 51.9 61 850(-0.7/3h) -- -- -- --
15:00 -7.7 -16.2 -15.3 NNO 27.8 -- 59.3 54 850(-0.3/3h) -- -- -- --
14:00 -7.8 -16.6 -16.2 NNO 29.6 -- 55.6 51 850(0.1/3h) -- -- -- --
13:00 -7.5 -16.7 -16.5 NNO 33.3 -- 59.3 48 850(0.4/3h) -- -- -- --
12:00 -7.8 -17.5 -17.4 NNO 37.0 -- 63.0 46 850(1.0/3h) -- -- -- --
11:00 -8.0 -18 -16.0 NNO 38.9 -- 61.1 52 850(1.6/3h) -- -- -- --
10:00 -7.9 -16.7 -15.4 NNO 29.6 -- 48.2 55 850(2.3/3h) -- -- -- --
09:00 -8.4 -17.1 -12.7 NO 27.8 -- 63.0 71 850(2.2/3h) -- -- -- --
08:00 -8.4 -17.6 -14.2 NO 31.5 -- 63.0 63 850(1.6/3h) -- -- -- --
07:00 -9.1 -19 -12.6 NNO 35.2 -- 57.4 76 850(1.1/3h) -- -- -- --
06:00 -9.3 -19.5 -13.8 NO 37.0 -- 74.1 70 850(0.9/3h) -- -- -- --
05:00 -9.7 -19.3 -13.8 NNO 31.5 -- 64.8 72 850(0.8/3h) -- -- -- --
04:00 -9.4 -19.2 -16.4 NO 33.3 -- 74.1 57 850(0.3/3h) -- -- -- --
03:00 -8.9 -20.1 -16.7 NNO 48.2 -- 70.4 53 850(0.3/3h) -- -- -- --
02:00 -8.7 -18 -10.1 NNO 31.5 -- 50.0 90 850(0.7/3h) -- -- -- --
01:00 -8.7 -18 -9.6 NNO 31.5 -- 48.2 93 850(0.3/3h) -- -- -- --
00:00 -8.4 -17.4 -9.5 NNO 29.6 -- 66.7 92 850(0.0/3h) -- -- -- --

1 Coordinated Universal Time. Actuellement il est 23:00 locale et 21:00 UTC.

2 Le vent souffle depuis la direction indiquée vers la direction oposée.

3 Les rafales max. sont disponible 40 min après l'heure du relevé.

4 Pour les stations d'altitude (plus de 600m) le géopotentiel du niveau le plus proche de la pression obligatoire est indiqué.

5 Les stations disposant d'un diffuseur peuvent indiquer "trace". Cela signifie que des précipitations ont touchés le sol mais que la quantité est inférieure à 0.1 mm.

Copyright

Les données affichées sur cette page sont la propriété exclusive de Météo Suisse.

Récapitulatif de la journée
Température [°C] Vent [km/h] Ensoleillement4 [h] Precipitations totale5 [mm] Pression [Hpa]
Min1 Max.2 Moy.3 Max. Min Max.
-10.0 -7.5 0 74.1 7 h 6 min 0 850.0 850.0

1 Température minimale relevée entre 18:00 UTC la veille et 18:00 UTC le jour donné.

2 Température maximale relevée entre 06:00 UTC le jour donné et 06:00 UTC le lendemain.

3 Vent moyen de la journée basé sur les relevés horaires.

4 Ensoleillement en heures relevé entre 06:00 UTC la veille et 06:00 UTC le jour donné.

5 Précipitations totales tombées entre 06:00 UTC la jour donné et 06:00 UTC le lendemain.

Graphiques horaires